createdAt,value
2018-09-20T00:00:15.641Z,20.60
2018-09-20T00:02:43.908Z,20.70
2018-09-20T00:05:12.114Z,20.70
2018-09-20T00:07:40.366Z,20.60
2018-09-20T00:10:08.691Z,20.70
2018-09-20T00:12:36.981Z,20.60
2018-09-20T00:15:05.263Z,20.60
2018-09-20T00:17:33.498Z,20.60
2018-09-20T00:20:01.819Z,20.60
2018-09-20T00:22:30.034Z,20.50
2018-09-20T00:24:58.360Z,20.50
2018-09-20T00:27:26.654Z,20.50
2018-09-20T00:29:55.025Z,20.40
2018-09-20T00:32:23.976Z,20.30
2018-09-20T00:34:52.289Z,20.40
2018-09-20T00:37:20.558Z,20.20
2018-09-20T00:39:48.901Z,20.20
2018-09-20T00:42:17.148Z,20.20
2018-09-20T00:44:45.435Z,20.20
2018-09-20T00:47:13.690Z,20.20
2018-09-20T00:49:42.002Z,20.20
2018-09-20T00:52:10.258Z,20.10
2018-09-20T00:54:38.559Z,20.00
2018-09-20T00:57:06.767Z,19.90
2018-09-20T00:59:35.007Z,19.90
2018-09-20T01:02:03.486Z,19.90
2018-09-20T01:04:31.713Z,19.80
2018-09-20T01:06:59.941Z,19.80
2018-09-20T01:09:28.160Z,19.70
2018-09-20T01:11:56.439Z,19.70
2018-09-20T01:14:24.651Z,19.60
2018-09-20T01:16:52.884Z,19.70
2018-09-20T01:19:21.106Z,19.70
2018-09-20T01:21:50.039Z,19.70
2018-09-20T01:24:18.293Z,19.60
2018-09-20T01:26:46.501Z,19.50
2018-09-20T01:29:14.739Z,19.50
2018-09-20T01:31:43.017Z,19.50
2018-09-20T01:34:11.225Z,19.50
2018-09-20T01:36:39.445Z,19.40
2018-09-20T01:39:11.022Z,19.40
2018-09-20T01:41:39.224Z,19.40
2018-09-20T01:44:07.482Z,19.20
2018-09-20T01:46:35.976Z,19.20
2018-09-20T01:49:04.245Z,19.10
2018-09-20T01:51:32.437Z,19.20
2018-09-20T01:54:00.716Z,19.00
2018-09-20T01:56:28.974Z,19.00
2018-09-20T01:58:57.206Z,19.00
2018-09-20T02:01:25.455Z,18.90
2018-09-20T02:03:53.682Z,19.00
2018-09-20T02:06:21.916Z,18.90
2018-09-20T02:08:50.233Z,18.90
2018-09-20T02:11:18.503Z,18.70
2018-09-20T02:13:46.732Z,18.90
2018-09-20T02:16:14.917Z,19.00
2018-09-20T02:18:43.070Z,18.90
2018-09-20T02:21:11.248Z,18.90
2018-09-20T02:23:39.463Z,19.00
2018-09-20T02:26:07.695Z,18.90
2018-09-20T02:28:35.855Z,18.80
2018-09-20T02:31:04.108Z,18.60
2018-09-20T02:33:32.910Z,18.60
2018-09-20T02:36:01.112Z,18.50
2018-09-20T02:38:29.339Z,18.50
2018-09-20T02:40:57.511Z,18.50
2018-09-20T02:43:25.754Z,18.50
2018-09-20T02:45:54.093Z,18.60
2018-09-20T02:48:22.465Z,18.60
2018-09-20T02:50:50.724Z,18.70
2018-09-20T02:53:18.920Z,18.70
2018-09-20T02:55:47.151Z,18.70
2018-09-20T02:58:15.419Z,18.50
2018-09-20T03:00:43.661Z,18.50
2018-09-20T03:03:11.891Z,18.40
2018-09-20T03:05:40.094Z,18.20
2018-09-20T03:08:08.341Z,18.20
2018-09-20T03:10:36.585Z,18.10
2018-09-20T03:13:04.814Z,18.10
2018-09-20T03:15:33.017Z,18.10
2018-09-20T03:18:01.321Z,18.20
2018-09-20T03:20:29.511Z,18.20
2018-09-20T03:22:57.795Z,18.10
2018-09-20T03:25:26.058Z,18.10
2018-09-20T03:27:54.272Z,17.90
2018-09-20T03:30:22.984Z,17.90
2018-09-20T03:32:51.206Z,17.90
2018-09-20T03:35:19.434Z,17.90
2018-09-20T03:37:47.655Z,17.90
2018-09-20T03:40:15.932Z,17.80
2018-09-20T03:42:44.153Z,17.70
2018-09-20T03:45:12.349Z,17.60
2018-09-20T03:47:40.577Z,17.50
2018-09-20T03:50:08.800Z,17.50
2018-09-20T03:52:37.015Z,17.60
2018-09-20T03:55:05.636Z,17.50
2018-09-20T03:57:33.972Z,17.60
2018-09-20T04:00:02.181Z,17.60
2018-09-20T04:02:30.415Z,17.60
2018-09-20T04:04:58.680Z,17.50
2018-09-20T04:07:27.019Z,17.60
2018-09-20T04:09:55.247Z,17.60
2018-09-20T04:12:23.468Z,17.70
2018-09-20T04:14:51.716Z,17.70
2018-09-20T04:17:19.939Z,17.60
2018-09-20T04:19:48.159Z,17.40
2018-09-20T04:22:16.346Z,17.50
2018-09-20T04:24:44.673Z,17.50
2018-09-20T04:27:12.984Z,17.40
2018-09-20T04:29:41.267Z,17.60
2018-09-20T04:32:09.509Z,17.60
2018-09-20T04:34:37.786Z,17.60
2018-09-20T04:37:06.145Z,17.60
2018-09-20T04:39:34.352Z,17.60
2018-09-20T04:42:02.578Z,17.50
2018-09-20T04:44:30.863Z,17.50
2018-09-20T04:46:59.110Z,17.50
2018-09-20T04:49:27.329Z,17.60
2018-09-20T04:51:55.531Z,17.60
2018-09-20T04:54:23.737Z,17.50
2018-09-20T04:56:52.868Z,17.40
2018-09-20T04:59:21.061Z,17.30
2018-09-20T05:01:49.245Z,17.30
2018-09-20T05:04:17.484Z,17.30
2018-09-20T05:06:45.706Z,17.20
2018-09-20T05:09:14.721Z,17.20
2018-09-20T05:11:43.579Z,17.10
2018-09-20T05:14:12.271Z,17.10
2018-09-20T05:16:41.261Z,17.10
2018-09-20T05:19:09.518Z,17.10
2018-09-20T05:21:37.888Z,17.10
2018-09-20T05:24:06.497Z,17.10
2018-09-20T05:26:34.687Z,17.10
2018-09-20T05:29:03.081Z,17.10
2018-09-20T05:31:31.395Z,17.10
2018-09-20T05:33:59.578Z,17.10
2018-09-20T05:36:28.333Z,17.10
2018-09-20T05:38:56.572Z,17.00
2018-09-20T05:41:24.866Z,17.00
2018-09-20T05:43:53.108Z,17.00
2018-09-20T05:46:21.445Z,17.20
2018-09-20T05:48:49.691Z,17.30
2018-09-20T05:51:17.932Z,17.40
2018-09-20T05:53:46.338Z,17.40
2018-09-20T05:56:14.537Z,17.30
2018-09-20T05:58:42.809Z,17.50
2018-09-20T06:01:11.067Z,17.60
2018-09-20T06:03:39.279Z,17.70
2018-09-20T06:06:07.508Z,17.80
2018-09-20T06:08:35.760Z,17.90
2018-09-20T06:11:03.968Z,18.00
2018-09-20T06:13:32.197Z,18.20
2018-09-20T06:16:00.482Z,18.40
2018-09-20T06:18:28.718Z,18.60
2018-09-20T06:20:56.917Z,18.70
2018-09-20T06:23:26.487Z,19.00
2018-09-20T06:25:54.725Z,19.20
2018-09-20T06:28:22.954Z,19.40
2018-09-20T06:30:51.167Z,19.40
2018-09-20T06:33:19.390Z,19.50
2018-09-20T06:35:47.629Z,19.80
2018-09-20T06:38:15.894Z,20.00
2018-09-20T06:40:44.081Z,20.10
2018-09-20T06:43:12.269Z,20.30
2018-09-20T06:45:40.497Z,20.30
2018-09-20T06:48:08.660Z,20.70
2018-09-20T06:50:37.717Z,20.80
2018-09-20T06:53:05.977Z,21.10
2018-09-20T06:55:34.292Z,21.10
2018-09-20T06:58:02.511Z,21.20
2018-09-20T07:00:30.799Z,21.40
2018-09-20T07:02:59.154Z,21.60
2018-09-20T07:05:27.328Z,21.90
2018-09-20T07:07:55.558Z,22.20
2018-09-20T07:10:23.732Z,22.40
2018-09-20T07:12:52.008Z,22.80
2018-09-20T07:15:20.251Z,23.00
2018-09-20T07:17:48.543Z,23.40
2018-09-20T07:20:16.826Z,23.50
2018-09-20T07:22:45.119Z,23.70
2018-09-20T07:25:13.411Z,24.00
2018-09-20T07:27:41.594Z,24.30
2018-09-20T07:30:09.877Z,24.90
2018-09-20T07:32:38.098Z,24.90
2018-09-20T07:35:06.568Z,24.80
2018-09-20T07:37:34.787Z,25.20
2018-09-20T07:40:03.192Z,25.40
2018-09-20T07:42:31.464Z,25.80
2018-09-20T07:44:59.752Z,25.80
2018-09-20T07:47:27.949Z,26.00
2018-09-20T07:49:56.246Z,26.70
2018-09-20T07:52:24.463Z,27.10
2018-09-20T07:54:52.700Z,27.00
2018-09-20T07:57:20.871Z,27.00
2018-09-20T07:59:49.114Z,27.00
2018-09-20T08:02:17.320Z,27.10
2018-09-20T08:04:45.531Z,27.40
2018-09-20T08:07:13.830Z,28.40
2018-09-20T08:09:42.813Z,28.80
2018-09-20T08:12:11.095Z,28.90
2018-09-20T08:14:39.309Z,29.30
2018-09-20T08:17:07.498Z,29.50
2018-09-20T08:19:35.912Z,29.80
2018-09-20T08:22:04.157Z,30.40
2018-09-20T08:24:32.401Z,30.00
2018-09-20T08:27:00.584Z,30.50
2018-09-20T08:29:28.804Z,30.90
2018-09-20T08:31:57.153Z,31.80
2018-09-20T08:34:25.367Z,31.10
2018-09-20T08:36:54.615Z,30.60
2018-09-20T08:39:22.873Z,31.10
2018-09-20T08:41:51.120Z,31.30
2018-09-20T08:44:19.319Z,31.50
2018-09-20T08:46:47.658Z,31.90
2018-09-20T08:49:16.053Z,32.20
2018-09-20T08:51:44.371Z,32.60
2018-09-20T08:54:12.571Z,32.60
2018-09-20T08:56:40.887Z,32.50
2018-09-20T08:59:09.089Z,32.20
2018-09-20T09:01:37.290Z,32.20
2018-09-20T09:04:05.534Z,32.30
2018-09-20T09:06:33.716Z,32.80
2018-09-20T09:09:01.880Z,32.70
2018-09-20T09:11:30.111Z,33.00
2018-09-20T09:13:58.383Z,33.30
2018-09-20T09:16:26.632Z,33.30
2018-09-20T09:18:54.841Z,33.50
2018-09-20T09:21:23.058Z,32.60
2018-09-20T09:23:51.339Z,32.90
2018-09-20T09:26:19.543Z,31.70
2018-09-20T09:28:47.812Z,30.90
2018-09-20T09:31:16.071Z,31.90
2018-09-20T09:33:44.284Z,32.90
2018-09-20T09:36:12.467Z,33.30
2018-09-20T09:38:41.101Z,34.20
2018-09-20T09:41:09.379Z,34.80
2018-09-20T09:43:37.603Z,34.70
2018-09-20T09:46:05.837Z,34.40
2018-09-20T09:48:34.874Z,33.30
2018-09-20T09:51:03.106Z,34.00
2018-09-20T09:53:31.305Z,33.70
2018-09-20T09:55:59.528Z,33.80
2018-09-20T09:58:27.960Z,34.00
2018-09-20T10:00:56.278Z,33.80
2018-09-20T10:03:24.490Z,33.10
2018-09-20T10:05:52.791Z,33.00
2018-09-20T10:08:21.079Z,34.30
2018-09-20T10:10:49.369Z,35.20
2018-09-20T10:13:17.613Z,33.10
2018-09-20T10:15:45.878Z,33.50
2018-09-20T10:18:14.116Z,34.50
2018-09-20T10:20:42.357Z,34.50
2018-09-20T10:23:11.232Z,34.60
2018-09-20T10:25:39.542Z,32.20
2018-09-20T10:28:07.870Z,32.40
2018-09-20T10:30:36.202Z,32.10
2018-09-20T10:33:04.399Z,31.60
2018-09-20T10:35:32.628Z,32.50
2018-09-20T10:38:01.006Z,33.50
2018-09-20T10:40:29.259Z,33.90
2018-09-20T10:42:57.573Z,32.70
2018-09-20T10:45:25.834Z,33.00
2018-09-20T10:47:54.084Z,34.00
2018-09-20T10:50:22.300Z,34.40
2018-09-20T10:52:50.558Z,35.10
2018-09-20T10:55:18.766Z,34.90
2018-09-20T10:57:47.355Z,34.70
2018-09-20T11:00:15.591Z,34.70
2018-09-20T11:02:43.782Z,35.20
2018-09-20T11:05:12.016Z,35.70
2018-09-20T11:07:40.557Z,35.90
2018-09-20T11:10:08.807Z,35.60
2018-09-20T11:12:37.139Z,35.30
2018-09-20T11:15:05.852Z,35.60
2018-09-20T11:17:34.114Z,35.80
2018-09-20T11:20:02.360Z,35.40
2018-09-20T11:22:30.604Z,34.80
2018-09-20T11:24:58.842Z,35.40
2018-09-20T11:27:27.134Z,35.70
2018-09-20T11:29:55.389Z,35.00
2018-09-20T11:32:24.653Z,34.50
2018-09-20T11:34:52.928Z,35.10
2018-09-20T11:37:21.153Z,35.80
2018-09-20T11:39:49.360Z,36.00
2018-09-20T11:42:17.569Z,35.50
2018-09-20T11:44:45.816Z,36.00
2018-09-20T11:47:14.031Z,36.60
2018-09-20T11:49:42.285Z,37.50
2018-09-20T11:52:10.471Z,37.40
2018-09-20T11:54:38.662Z,36.90
2018-09-20T11:57:06.903Z,37.10
2018-09-20T11:59:35.173Z,36.90
2018-09-20T12:02:03.912Z,37.50
2018-09-20T12:04:32.066Z,36.50
2018-09-20T12:07:00.279Z,36.50
2018-09-20T12:09:28.456Z,36.40
2018-09-20T12:11:56.791Z,35.60
2018-09-20T12:14:25.038Z,36.20
2018-09-20T12:16:53.231Z,37.00
2018-09-20T12:19:21.464Z,37.50
2018-09-20T12:21:49.869Z,37.20
2018-09-20T12:24:18.065Z,37.60
2018-09-20T12:26:46.344Z,37.00
2018-09-20T12:29:14.579Z,36.70
2018-09-20T12:31:42.960Z,36.80
2018-09-20T12:34:11.111Z,37.30
2018-09-20T12:36:39.352Z,38.00
2018-09-20T12:39:09.951Z,38.00
2018-09-20T12:41:38.238Z,37.80
2018-09-20T12:44:06.712Z,36.70
2018-09-20T12:46:35.069Z,36.60
2018-09-20T12:49:03.544Z,37.00
2018-09-20T12:51:31.926Z,37.00
2018-09-20T12:54:00.274Z,37.30
2018-09-20T12:56:28.483Z,37.20
2018-09-20T12:58:56.717Z,37.80
2018-09-20T13:01:25.030Z,37.80
2018-09-20T13:03:53.320Z,37.40
2018-09-20T13:06:21.573Z,37.90
2018-09-20T13:08:49.840Z,37.30
2018-09-20T13:11:18.652Z,36.90
2018-09-20T13:13:47.759Z,37.00
2018-09-20T13:16:16.054Z,36.80
2018-09-20T13:18:44.341Z,37.10
2018-09-20T13:21:12.670Z,36.40
2018-09-20T13:23:41.016Z,36.70
2018-09-20T13:26:09.557Z,36.60
2018-09-20T13:28:37.805Z,36.60
2018-09-20T13:31:06.065Z,37.00
2018-09-20T13:33:34.305Z,36.60
2018-09-20T13:36:02.535Z,36.10
2018-09-20T13:38:30.798Z,35.80
2018-09-20T13:40:59.073Z,35.80
2018-09-20T13:43:27.401Z,35.40
2018-09-20T13:45:55.653Z,35.20
2018-09-20T13:48:23.931Z,35.40
2018-09-20T13:50:52.273Z,35.60
2018-09-20T13:53:20.811Z,35.50
2018-09-20T13:55:49.092Z,35.30
2018-09-20T13:58:17.374Z,34.40
2018-09-20T14:00:45.654Z,34.30
2018-09-20T14:03:13.916Z,34.00
2018-09-20T14:05:42.192Z,33.80
2018-09-20T14:08:10.480Z,33.90
2018-09-20T14:10:38.734Z,33.90
2018-09-20T14:13:07.124Z,33.80
2018-09-20T14:15:35.440Z,33.60
2018-09-20T14:18:03.649Z,33.30
2018-09-20T14:20:31.927Z,32.90
2018-09-20T14:23:00.157Z,32.90
2018-09-20T14:25:28.428Z,32.40
2018-09-20T14:27:56.849Z,32.30
2018-09-20T14:30:25.107Z,32.30
2018-09-20T14:32:53.403Z,32.30
2018-09-20T14:35:23.026Z,32.00
2018-09-20T14:37:51.286Z,31.90
2018-09-20T14:40:19.557Z,32.00
2018-09-20T14:42:47.856Z,31.80
2018-09-20T14:45:16.238Z,31.70
2018-09-20T14:47:44.504Z,31.80
2018-09-20T14:50:12.712Z,31.90
2018-09-20T14:52:41.255Z,31.70
2018-09-20T14:55:09.935Z,31.50
2018-09-20T14:57:38.182Z,31.40
2018-09-20T15:00:06.520Z,31.20
2018-09-20T15:02:34.836Z,31.50
2018-09-20T15:05:03.265Z,31.60
2018-09-20T15:07:31.531Z,31.20
2018-09-20T15:09:59.774Z,31.10
2018-09-20T15:12:28.063Z,31.00
2018-09-20T15:14:56.356Z,31.00
2018-09-20T15:17:24.708Z,30.90
2018-09-20T15:19:53.093Z,30.90
2018-09-20T15:22:21.404Z,31.00
2018-09-20T15:24:49.685Z,30.90
2018-09-20T15:27:17.932Z,30.70
2018-09-20T15:29:46.765Z,30.90
2018-09-20T15:32:14.999Z,30.80
2018-09-20T15:34:43.333Z,30.80
2018-09-20T15:37:11.606Z,30.70
2018-09-20T15:39:39.828Z,30.60
2018-09-20T15:42:08.115Z,30.50
2018-09-20T15:44:36.426Z,30.30
2018-09-20T15:47:04.732Z,30.10
2018-09-20T15:49:33.122Z,30.20
2018-09-20T15:52:01.402Z,30.20
2018-09-20T15:54:30.055Z,30.20
2018-09-20T15:56:58.440Z,30.10
2018-09-20T15:59:26.732Z,30.10
2018-09-20T16:01:55.036Z,30.20
2018-09-20T16:04:23.351Z,30.10
2018-09-20T16:06:51.592Z,30.10
2018-09-20T16:09:19.881Z,29.90
2018-09-20T16:11:48.180Z,29.80
2018-09-20T16:14:16.498Z,29.70
2018-09-20T16:16:44.722Z,29.70
2018-09-20T16:19:13.007Z,29.60
2018-09-20T16:21:41.819Z,29.40
2018-09-20T16:24:10.050Z,29.30
2018-09-20T16:26:38.319Z,29.20
2018-09-20T16:29:18.412Z,29.20
2018-09-20T16:32:33.190Z,29.10
2018-09-20T16:36:15.663Z,29.20
2018-09-20T16:38:52.664Z,28.90
2018-09-20T16:41:27.997Z,28.90
2018-09-20T16:43:56.321Z,28.90
2018-09-20T16:46:24.619Z,28.80
2018-09-20T16:48:53.041Z,28.80
2018-09-20T16:51:21.872Z,28.90
2018-09-20T16:53:50.201Z,28.80
2018-09-20T16:56:18.477Z,28.80
2018-09-20T16:58:50.040Z,28.90
2018-09-20T17:01:18.990Z,28.60
2018-09-20T17:03:47.433Z,28.60
2018-09-20T17:06:16.016Z,28.50
2018-09-20T17:08:44.373Z,28.50
2018-09-20T17:11:12.686Z,28.50
2018-09-20T17:13:40.953Z,28.40
2018-09-20T17:16:09.247Z,28.20
2018-09-20T17:18:37.537Z,28.20
2018-09-20T17:21:05.941Z,28.00
2018-09-20T17:23:34.220Z,27.90
2018-09-20T17:26:02.634Z,27.90
2018-09-20T17:28:31.261Z,27.70
2018-09-20T17:30:59.560Z,27.60
2018-09-20T17:33:27.836Z,27.60
2018-09-20T17:35:56.430Z,27.60
2018-09-20T17:38:25.311Z,27.50
2018-09-20T17:40:59.269Z,27.50
2018-09-20T17:43:34.136Z,27.40
2018-09-20T17:46:02.619Z,27.40
2018-09-20T17:48:30.864Z,27.40
2018-09-20T17:50:59.784Z,27.30
2018-09-20T17:53:28.526Z,27.20
2018-09-20T17:55:57.563Z,27.30
2018-09-20T17:58:26.824Z,27.30
2018-09-20T18:00:55.101Z,27.20
2018-09-20T18:03:23.343Z,27.10
2018-09-20T18:05:51.573Z,27.00
2018-09-20T18:08:19.881Z,27.00
2018-09-20T18:10:48.186Z,27.00
2018-09-20T18:13:16.489Z,26.80
2018-09-20T18:15:44.809Z,26.80
2018-09-20T18:18:13.613Z,26.80
2018-09-20T18:20:42.082Z,26.70
2018-09-20T18:23:10.378Z,26.60
2018-09-20T18:25:38.677Z,26.60
2018-09-20T18:28:07.002Z,26.60
2018-09-20T18:30:35.388Z,26.40
2018-09-20T18:33:03.686Z,26.30
2018-09-20T18:35:32.078Z,26.30
2018-09-20T18:38:00.403Z,26.30
2018-09-20T18:40:28.722Z,26.10
2018-09-20T18:42:57.030Z,26.00
2018-09-20T18:45:25.483Z,26.00
2018-09-20T18:47:53.778Z,25.90
2018-09-20T18:50:22.019Z,25.80
2018-09-20T18:52:50.412Z,25.80
2018-09-20T18:55:18.767Z,25.80
2018-09-20T18:57:47.085Z,25.80
2018-09-20T19:00:15.288Z,25.60
2018-09-20T19:02:43.560Z,25.60
2018-09-20T19:05:11.829Z,25.60
2018-09-20T19:07:40.096Z,25.60
2018-09-20T19:10:08.321Z,25.60
2018-09-20T19:12:37.637Z,25.50
2018-09-20T19:15:07.470Z,25.40
2018-09-20T19:17:35.754Z,25.30
2018-09-20T19:20:04.421Z,25.10
2018-09-20T19:22:32.665Z,25.10
2018-09-20T19:25:00.983Z,25.10
2018-09-20T19:27:29.307Z,25.20
2018-09-20T19:29:57.661Z,25.00
2018-09-20T19:32:26.110Z,24.90
2018-09-20T19:34:54.368Z,24.80
2018-09-20T19:37:22.662Z,24.80
2018-09-20T19:39:51.049Z,24.80
2018-09-20T19:42:19.309Z,24.70
2018-09-20T19:44:47.642Z,24.60
2018-09-20T19:47:15.982Z,24.60
2018-09-20T19:49:44.264Z,24.60
2018-09-20T19:52:12.702Z,24.60
2018-09-20T19:54:40.965Z,24.60
2018-09-20T19:57:09.484Z,24.60
2018-09-20T19:59:37.956Z,24.60
2018-09-20T20:02:06.542Z,24.40
2018-09-20T20:04:35.060Z,24.50
2018-09-20T20:07:03.392Z,24.50
2018-09-20T20:09:31.937Z,24.50
2018-09-20T20:12:00.255Z,24.50
2018-09-20T20:14:28.532Z,24.50
2018-09-20T20:16:56.793Z,24.50
2018-09-20T20:19:25.248Z,24.50
2018-09-20T20:21:53.707Z,24.50
2018-09-20T20:24:21.997Z,24.40
2018-09-20T20:26:50.387Z,24.30
2018-09-20T20:29:18.630Z,24.30
2018-09-20T20:31:46.900Z,24.30
2018-09-20T20:34:15.207Z,24.30
2018-09-20T20:36:43.517Z,24.10
2018-09-20T20:39:11.802Z,24.20
2018-09-20T20:41:40.139Z,24.20
2018-09-20T20:44:08.395Z,24.10
2018-09-20T20:46:36.623Z,24.10
2018-09-20T20:49:04.883Z,24.10
2018-09-20T20:51:33.188Z,24.10
2018-09-20T20:54:01.482Z,23.90
2018-09-20T20:56:29.816Z,23.90
2018-09-20T20:58:58.209Z,23.70
2018-09-20T21:01:26.426Z,23.80
2018-09-20T21:03:54.733Z,23.80
2018-09-20T21:06:23.023Z,23.80
2018-09-20T21:08:51.330Z,23.70
2018-09-20T21:11:19.616Z,23.60
2018-09-20T21:13:47.863Z,23.60
2018-09-20T21:16:16.084Z,23.60
2018-09-20T21:18:44.309Z,23.60
2018-09-20T21:21:12.620Z,23.50
2018-09-20T21:23:40.846Z,23.40
2018-09-20T21:26:09.197Z,23.30
2018-09-20T21:28:37.532Z,23.30
2018-09-20T21:31:06.289Z,23.10
2018-09-20T21:33:34.539Z,23.10
2018-09-20T21:36:02.804Z,23.10
2018-09-20T21:38:31.147Z,23.10
2018-09-20T21:40:59.588Z,23.10
2018-09-20T21:43:27.828Z,23.10
2018-09-20T21:45:56.094Z,22.90
2018-09-20T21:48:24.296Z,22.80
2018-09-20T21:50:52.525Z,22.60
2018-09-20T21:53:20.779Z,22.60
2018-09-20T21:55:49.058Z,22.40
2018-09-20T21:58:17.258Z,22.50
2018-09-20T22:00:45.926Z,22.40
2018-09-20T22:03:14.206Z,22.40
2018-09-20T22:05:42.439Z,22.30
2018-09-20T22:08:10.691Z,22.30
2018-09-20T22:10:38.992Z,22.40
2018-09-20T22:13:07.216Z,22.30
2018-09-20T22:15:35.461Z,22.30
2018-09-20T22:18:03.727Z,22.40
2018-09-20T22:20:31.941Z,22.30
2018-09-20T22:23:00.200Z,22.20
2018-09-20T22:25:28.493Z,22.20
2018-09-20T22:27:56.702Z,22.20
2018-09-20T22:30:24.943Z,22.30
2018-09-20T22:32:53.186Z,22.20
2018-09-20T22:35:51.969Z,22.30
2018-09-20T22:38:20.259Z,22.30
2018-09-20T22:40:48.535Z,22.40
2018-09-20T22:43:16.792Z,22.40
2018-09-20T22:45:45.055Z,22.40
2018-09-20T22:48:13.278Z,22.30
2018-09-20T22:50:41.515Z,22.20
2018-09-20T22:53:09.762Z,22.00
2018-09-20T22:55:37.979Z,22.00
2018-09-20T22:58:06.418Z,21.80
2018-09-20T23:00:34.933Z,21.70
2018-09-20T23:03:03.187Z,21.60
2018-09-20T23:05:31.448Z,21.60
2018-09-20T23:07:59.875Z,21.50
2018-09-20T23:10:28.090Z,21.50
2018-09-20T23:12:56.312Z,21.60
2018-09-20T23:15:24.586Z,21.60
2018-09-20T23:17:52.818Z,21.40
2018-09-20T23:20:21.073Z,21.40
2018-09-20T23:22:49.326Z,21.40
2018-09-20T23:25:17.644Z,21.60
2018-09-20T23:27:45.875Z,21.50
2018-09-20T23:30:14.125Z,21.40
2018-09-20T23:32:42.352Z,21.30
2018-09-20T23:35:10.582Z,21.30
2018-09-20T23:37:38.788Z,21.30
2018-09-20T23:40:06.993Z,21.30
2018-09-20T23:42:35.210Z,21.30
2018-09-20T23:45:03.463Z,21.20
2018-09-20T23:47:31.716Z,21.10
2018-09-20T23:49:59.964Z,21.10
2018-09-20T23:52:28.259Z,21.10
2018-09-20T23:54:56.527Z,21.00
2018-09-20T23:57:24.775Z,21.00
2018-09-20T23:59:53.167Z,20.90
